Portada
METAR-TAF:

METAR-TAF

Aeroports :

Buixehr, Iran

latitud: 28-59N, longitud: 050-50E, altitud: 19 m

Observació

L'informe es va fer fa 33 minuts, a les 14:00 UTC
Vent 10 kt del Oest/Sud-Oest
Temperatura 32°C
Humitat 63%
Pressió 1007 hPa
Visibilitat: 8000 m

METAR: OIBB 251400Z 24010KT 8000 NSC 32/24 Q1006 A2974

Hora: 19:03 (14:33 UTC)


TAF: manca

Observacions i pronòstics meteorològics de més de 4000 aeroports (METAR i TAF).

Les estacions disponibles són els punts grocs i vermells al mapa.

Posi el ratolí al punt desitjat per veure el nom de l'estació.

Feu clic per veure les observacions i els pronòstics meteorològics.

Per canviar el mapa: feu clic els botons verds amb una creu de color negre per apropar; al botó verd amb un guió per allunyar la imatge; o en les fletxes verdes per a mapes adjacents.


METAR-TAF: